createdAt,value
2018-08-25T00:00:25.496Z,66.99
2018-08-25T00:01:25.494Z,67.28
2018-08-25T00:02:25.496Z,67.85
2018-08-25T00:03:25.498Z,68.14
2018-08-25T00:04:25.497Z,68.24
2018-08-25T00:05:25.496Z,68.14
2018-08-25T00:06:25.499Z,68.05
2018-08-25T00:07:25.495Z,67.91
2018-08-25T00:08:25.496Z,68.59
2018-08-25T00:09:25.497Z,69.45
2018-08-25T00:10:25.495Z,68.97
2018-08-25T00:11:25.497Z,68.78
2018-08-25T00:12:25.497Z,69.45
2018-08-25T00:13:25.492Z,70.12
2018-08-25T00:14:25.492Z,70.21
2018-08-25T00:15:25.503Z,70.31
2018-08-25T00:16:25.495Z,70.89
2018-08-25T00:17:25.493Z,71.56
2018-08-25T00:18:25.496Z,71.84
2018-08-25T00:19:25.496Z,71.17
2018-08-25T00:20:25.496Z,71.37
2018-08-25T00:21:25.496Z,71.84
2018-08-25T00:22:25.492Z,71.17
2018-08-25T00:23:25.496Z,71.84
2018-08-25T00:24:25.495Z,72.03
2018-08-25T00:25:25.501Z,71.94
2018-08-25T00:26:25.492Z,71.84
2018-08-25T00:27:25.495Z,72.03
2018-08-25T00:28:25.495Z,72.03
2018-08-25T00:29:25.494Z,71.66
2018-08-25T00:30:25.499Z,71.94
2018-08-25T00:31:25.493Z,72.61
2018-08-25T00:32:25.498Z,71.56
2018-08-25T00:33:25.492Z,71.94
2018-08-25T00:34:25.508Z,71.84
2018-08-25T00:35:25.492Z,71.46
2018-08-25T00:36:25.491Z,71.08
2018-08-25T00:37:25.489Z,72.61
2018-08-25T00:38:25.495Z,72.03
2018-08-25T00:39:25.493Z,71.84
2018-08-25T00:40:25.496Z,71.66
2018-08-25T00:41:25.492Z,72.61
2018-08-25T00:42:25.499Z,72.42
2018-08-25T00:43:25.492Z,72.52
2018-08-25T00:44:25.497Z,72.71
2018-08-25T00:45:25.501Z,72.86
2018-08-25T00:46:25.489Z,72.86
2018-08-25T00:47:25.495Z,73.05
2018-08-25T00:48:25.490Z,72.96
2018-08-25T00:49:25.493Z,73.24
2018-08-25T00:50:25.496Z,73.15
2018-08-25T00:51:25.489Z,73.54
2018-08-25T00:52:25.492Z,73.24
2018-08-25T00:53:25.492Z,72.96
2018-08-25T00:54:25.489Z,73.72
2018-08-25T00:55:25.491Z,73.15
2018-08-25T00:56:25.489Z,72.96
2018-08-25T00:57:25.525Z,73.15
2018-08-25T00:58:25.492Z,72.77
2018-08-25T00:59:25.583Z,73.54
2018-08-25T01:00:25.495Z,73.34
2018-08-25T01:01:25.489Z,73.15
2018-08-25T01:02:25.488Z,73.63
2018-08-25T01:03:25.488Z,73.63
2018-08-25T01:04:25.488Z,74.20
2018-08-25T01:05:25.489Z,74.49
2018-08-25T01:06:25.489Z,74.11
2018-08-25T01:07:25.487Z,74.01
2018-08-25T01:08:25.487Z,73.63
2018-08-25T01:09:25.502Z,74.58
2018-08-25T01:10:25.486Z,74.01
2018-08-25T01:11:25.487Z,74.30
2018-08-25T01:12:25.489Z,74.87
2018-08-25T01:13:25.488Z,74.49
2018-08-25T01:14:25.488Z,74.68
2018-08-25T01:15:25.489Z,74.30
2018-08-25T01:16:25.485Z,75.26
2018-08-25T01:17:25.487Z,75.45
2018-08-25T01:18:25.487Z,75.54
2018-08-25T01:19:25.542Z,75.73
2018-08-25T01:20:25.484Z,75.51
2018-08-25T01:21:25.483Z,75.22
2018-08-25T01:22:25.484Z,75.41
2018-08-25T01:23:25.483Z,75.51
2018-08-25T01:24:25.483Z,75.22
2018-08-25T01:25:25.484Z,75.31
2018-08-25T01:26:25.488Z,75.31
2018-08-25T01:27:25.484Z,75.79
2018-08-25T01:28:25.484Z,76.18
2018-08-25T01:29:25.488Z,76.08
2018-08-25T01:30:25.481Z,75.79
2018-08-25T01:31:25.479Z,75.89
2018-08-25T01:32:25.480Z,75.89
2018-08-25T01:33:25.481Z,76.18
2018-08-25T01:34:25.477Z,75.98
2018-08-25T01:35:25.478Z,76.18
2018-08-25T01:36:25.478Z,76.56
2018-08-25T01:37:25.477Z,76.75
2018-08-25T01:38:25.478Z,76.84
2018-08-25T01:39:25.485Z,76.75
2018-08-25T01:40:25.478Z,76.65
2018-08-25T01:41:25.472Z,77.42
2018-08-25T01:42:25.476Z,77.42
2018-08-25T01:43:25.477Z,77.42
2018-08-25T01:44:25.474Z,76.75
2018-08-25T01:45:25.474Z,76.65
2018-08-25T01:46:25.474Z,76.84
2018-08-25T01:47:25.475Z,76.75
2018-08-25T01:48:25.473Z,77.80
2018-08-25T01:49:25.489Z,77.80
2018-08-25T01:50:25.475Z,77.33
2018-08-25T01:51:25.471Z,77.42
2018-08-25T01:52:25.472Z,77.33
2018-08-25T01:53:25.468Z,77.61
2018-08-25T01:54:25.472Z,77.13
2018-08-25T01:55:25.468Z,77.33
2018-08-25T01:56:25.469Z,76.94
2018-08-25T01:57:25.470Z,77.80
2018-08-25T01:58:25.470Z,77.99
2018-08-25T01:59:25.517Z,77.51
2018-08-25T02:00:25.467Z,77.80
2018-08-25T02:01:25.465Z,77.99
2018-08-25T02:02:25.467Z,77.70
2018-08-25T02:03:25.460Z,77.99
2018-08-25T02:04:25.462Z,78.09
2018-08-25T02:05:25.462Z,78.09
2018-08-25T02:06:25.464Z,78.09
2018-08-25T02:07:25.464Z,78.05
2018-08-25T02:08:25.464Z,78.47
2018-08-25T02:09:25.483Z,78.14
2018-08-25T02:10:25.459Z,78.05
2018-08-25T02:11:25.455Z,78.34
2018-08-25T02:12:25.456Z,78.24
2018-08-25T02:13:25.457Z,78.34
2018-08-25T02:14:25.458Z,78.43
2018-08-25T02:15:25.458Z,78.81
2018-08-25T02:16:25.456Z,79.58
2018-08-25T02:17:25.455Z,80.06
2018-08-25T02:18:25.460Z,79.58
2018-08-25T02:19:25.457Z,80.06
2018-08-25T02:20:25.454Z,79.73
2018-08-25T02:21:25.452Z,80.40
2018-08-25T02:22:25.453Z,80.40
2018-08-25T02:23:25.448Z,81.07
2018-08-25T02:24:25.454Z,81.84
2018-08-25T02:25:25.448Z,81.36
2018-08-25T02:26:25.450Z,80.59
2018-08-25T02:27:25.453Z,80.98
2018-08-25T02:28:25.451Z,81.45
2018-08-25T02:29:25.450Z,81.26
2018-08-25T02:30:25.448Z,81.45
2018-08-25T02:31:25.441Z,80.88
2018-08-25T02:32:25.451Z,80.79
2018-08-25T02:33:25.444Z,81.07
2018-08-25T02:34:25.441Z,81.26
2018-08-25T02:35:25.441Z,82.12
2018-08-25T02:36:25.441Z,82.12
2018-08-25T02:37:25.436Z,81.65
2018-08-25T02:38:25.441Z,82.31
2018-08-25T02:39:25.437Z,82.31
2018-08-25T02:40:25.439Z,82.12
2018-08-25T02:41:25.436Z,82.03
2018-08-25T02:42:25.447Z,82.12
2018-08-25T02:43:25.434Z,81.93
2018-08-25T02:44:25.429Z,82.12
2018-08-25T02:45:25.432Z,82.12
2018-08-25T02:46:25.435Z,82.31
2018-08-25T02:47:25.444Z,82.70
2018-08-25T02:48:25.425Z,82.89
2018-08-25T02:49:25.426Z,82.79
2018-08-25T02:50:25.428Z,82.41
2018-08-25T02:51:25.427Z,82.70
2018-08-25T02:52:25.425Z,81.93
2018-08-25T02:53:25.424Z,82.60
2018-08-25T02:54:25.429Z,82.60
2018-08-25T02:55:25.422Z,82.89
2018-08-25T02:56:25.423Z,82.60
2018-08-25T02:57:25.420Z,82.79
2018-08-25T02:58:25.418Z,82.41
2018-08-25T02:59:25.422Z,81.74
2018-08-25T03:00:25.424Z,81.45
2018-08-25T03:01:25.416Z,80.79
2018-08-25T03:02:25.416Z,81.11
2018-08-25T03:03:25.413Z,80.35
2018-08-25T03:04:25.433Z,79.96
2018-08-25T03:05:25.415Z,80.06
2018-08-25T03:06:25.421Z,80.98
2018-08-25T03:07:25.418Z,80.79
2018-08-25T03:08:25.407Z,80.79
2018-08-25T03:09:25.412Z,81.36
2018-08-25T03:10:25.408Z,81.84
2018-08-25T03:11:25.407Z,82.22
2018-08-25T03:12:25.405Z,82.12
2018-08-25T03:13:25.402Z,82.60
2018-08-25T03:14:25.408Z,83.08
2018-08-25T03:15:25.405Z,82.79
2018-08-25T03:16:25.401Z,82.60
2018-08-25T03:17:25.398Z,83.46
2018-08-25T03:18:25.397Z,83.17
2018-08-25T03:19:25.398Z,83.40
2018-08-25T03:20:25.396Z,82.93
2018-08-25T03:21:25.398Z,82.93
2018-08-25T03:22:25.393Z,83.03
2018-08-25T03:23:25.393Z,83.22
2018-08-25T03:24:25.393Z,82.93
2018-08-25T03:25:25.394Z,82.74
2018-08-25T03:26:25.386Z,82.64
2018-08-25T03:27:25.394Z,82.93
2018-08-25T03:28:25.390Z,82.54
2018-08-25T03:29:25.429Z,82.83
2018-08-25T03:30:25.390Z,82.07
2018-08-25T03:31:25.385Z,81.97
2018-08-25T03:32:25.384Z,81.97
2018-08-25T03:33:25.381Z,81.68
2018-08-25T03:34:25.381Z,81.78
2018-08-25T03:35:25.383Z,81.59
2018-08-25T03:36:25.383Z,81.40
2018-08-25T03:37:25.382Z,81.40
2018-08-25T03:38:25.377Z,81.59
2018-08-25T03:39:25.378Z,81.49
2018-08-25T03:40:25.376Z,81.21
2018-08-25T03:41:25.379Z,80.82
2018-08-25T03:42:25.375Z,80.92
2018-08-25T03:43:25.372Z,81.11
2018-08-25T03:44:25.373Z,80.54
2018-08-25T03:45:25.371Z,80.16
2018-08-25T03:46:25.370Z,80.44
2018-08-25T03:47:25.370Z,80.06
2018-08-25T03:48:25.368Z,79.96
2018-08-25T03:49:25.395Z,79.87
2018-08-25T03:50:25.368Z,80.25
2018-08-25T03:51:25.365Z,79.87
2018-08-25T03:52:25.366Z,80.44
2018-08-25T03:53:25.363Z,79.77
2018-08-25T03:54:25.363Z,79.58
2018-08-25T03:55:25.435Z,79.58
2018-08-25T03:56:25.361Z,80.54
2018-08-25T03:57:25.356Z,81.02
2018-08-25T03:58:25.356Z,80.92
2018-08-25T03:59:25.355Z,81.02
2018-08-25T04:00:25.355Z,80.82
2018-08-25T04:01:25.393Z,81.49
2018-08-25T04:02:25.351Z,81.88
2018-08-25T04:03:25.352Z,81.78
2018-08-25T04:04:25.354Z,82.74
2018-08-25T04:05:25.348Z,82.54
2018-08-25T04:06:25.346Z,82.89
2018-08-25T04:07:25.378Z,82.54
2018-08-25T04:08:25.345Z,83.08
2018-08-25T04:09:25.343Z,82.83
2018-08-25T04:10:25.344Z,82.64
2018-08-25T04:11:25.341Z,82.45
2018-08-25T04:12:25.340Z,82.45
2018-08-25T04:13:25.339Z,82.54
2018-08-25T04:14:25.338Z,82.83
2018-08-25T04:15:25.340Z,82.64
2018-08-25T04:16:25.336Z,82.64
2018-08-25T04:17:25.339Z,82.26
2018-08-25T04:18:25.332Z,82.26
2018-08-25T04:19:25.341Z,82.54
2018-08-25T04:20:25.335Z,82.64
2018-08-25T04:21:25.329Z,82.45
2018-08-25T04:22:25.332Z,82.74
2018-08-25T04:23:25.327Z,82.54
2018-08-25T04:24:25.329Z,82.64
2018-08-25T04:25:25.325Z,82.64
2018-08-25T04:26:25.319Z,82.93
2018-08-25T04:27:25.323Z,82.83
2018-08-25T04:28:25.321Z,83.12
2018-08-25T04:29:25.322Z,82.26
2018-08-25T04:30:25.321Z,82.45
2018-08-25T04:31:25.322Z,82.64
2018-08-25T04:32:25.321Z,83.03
2018-08-25T04:33:25.351Z,82.54
2018-08-25T04:34:25.313Z,82.64
2018-08-25T04:35:25.311Z,82.54
2018-08-25T04:36:25.313Z,81.97
2018-08-25T04:37:25.310Z,81.68
2018-08-25T04:38:25.314Z,82.35
2018-08-25T04:39:25.317Z,82.17
2018-08-25T04:40:25.310Z,82.17
2018-08-25T04:41:25.418Z,81.97
2018-08-25T04:42:25.307Z,82.83
2018-08-25T04:43:25.308Z,82.83
2018-08-25T04:44:25.302Z,82.83
2018-08-25T04:45:25.306Z,82.93
2018-08-25T04:46:25.301Z,82.93
2018-08-25T04:47:25.300Z,82.93
2018-08-25T04:48:25.300Z,82.64
2018-08-25T04:49:25.298Z,82.74
2018-08-25T04:50:25.297Z,83.12
2018-08-25T04:51:25.297Z,83.03
2018-08-25T04:52:25.298Z,82.83
2018-08-25T04:53:25.295Z,83.03
2018-08-25T04:54:25.305Z,82.93
2018-08-25T04:55:25.292Z,83.31
2018-08-25T04:56:25.294Z,83.22
2018-08-25T04:57:25.291Z,83.60
2018-08-25T04:58:25.289Z,83.31
2018-08-25T04:59:25.292Z,82.78
2018-08-25T05:00:25.288Z,82.78
2018-08-25T05:01:25.289Z,82.01
2018-08-25T05:02:25.286Z,82.20
2018-08-25T05:03:25.293Z,82.20
2018-08-25T05:04:25.286Z,82.11
2018-08-25T05:05:25.284Z,81.82
2018-08-25T05:06:25.283Z,82.30
2018-08-25T05:07:25.282Z,82.30
2018-08-25T05:08:25.282Z,81.73
2018-08-25T05:09:25.291Z,81.82
2018-08-25T05:10:25.279Z,81.82
2018-08-25T05:11:25.278Z,82.11
2018-08-25T05:12:25.276Z,81.92
2018-08-25T05:13:25.279Z,81.34
2018-08-25T05:14:25.274Z,81.34
2018-08-25T05:15:25.274Z,81.63
2018-08-25T05:16:25.274Z,80.71
2018-08-25T05:17:25.274Z,81.00
2018-08-25T05:18:25.271Z,81.10
2018-08-25T05:19:25.271Z,80.87
2018-08-25T05:20:25.271Z,80.90
2018-08-25T05:21:25.269Z,81.20
2018-08-25T05:22:25.267Z,81.38
2018-08-25T05:23:25.268Z,81.10
2018-08-25T05:24:25.267Z,80.81
2018-08-25T05:25:25.265Z,80.71
2018-08-25T05:26:25.264Z,80.24
2018-08-25T05:27:25.263Z,80.24
2018-08-25T05:28:25.266Z,80.43
2018-08-25T05:29:25.275Z,80.33
2018-08-25T05:30:25.261Z,80.52
2018-08-25T05:31:25.259Z,79.75
2018-08-25T05:32:25.268Z,80.33
2018-08-25T05:33:25.260Z,79.75
2018-08-25T05:34:25.261Z,81.10
2018-08-25T05:35:25.260Z,81.00
2018-08-25T05:36:25.258Z,81.00
2018-08-25T05:37:25.257Z,81.10
2018-08-25T05:38:25.256Z,80.90
2018-08-25T05:39:25.258Z,80.85
2018-08-25T05:40:25.258Z,81.04
2018-08-25T05:41:25.255Z,81.13
2018-08-25T05:42:25.253Z,81.10
2018-08-25T05:43:25.259Z,81.33
2018-08-25T05:44:25.255Z,81.62
2018-08-25T05:45:25.252Z,81.52
2018-08-25T05:46:25.252Z,81.52
2018-08-25T05:47:25.252Z,81.52
2018-08-25T05:48:25.251Z,81.71
2018-08-25T05:49:25.250Z,82.29
2018-08-25T05:50:25.250Z,81.81
2018-08-25T05:51:25.250Z,81.23
2018-08-25T05:52:25.249Z,80.85
2018-08-25T05:53:25.248Z,81.04
2018-08-25T05:54:25.250Z,81.18
2018-08-25T05:55:25.250Z,80.79
2018-08-25T05:56:25.250Z,80.22
2018-08-25T05:57:25.245Z,80.32
2018-08-25T05:58:25.248Z,80.03
2018-08-25T05:59:25.251Z,79.88
2018-08-25T06:00:25.255Z,79.59
2018-08-25T06:01:25.253Z,78.72
2018-08-25T06:02:25.247Z,79.01
2018-08-25T06:03:25.247Z,78.86
2018-08-25T06:04:25.247Z,78.05
2018-08-25T06:05:25.246Z,78.28
2018-08-25T06:06:25.288Z,76.65
2018-08-25T06:07:25.248Z,75.98
2018-08-25T06:08:25.250Z,76.27
2018-08-25T06:09:25.243Z,76.21
2018-08-25T06:10:25.247Z,75.63
2018-08-25T06:11:25.247Z,74.48
2018-08-25T06:12:25.249Z,74.48
2018-08-25T06:13:25.310Z,74.23
2018-08-25T06:14:25.247Z,74.33
2018-08-25T06:15:25.251Z,74.13
2018-08-25T06:16:25.250Z,75.29
2018-08-25T06:17:25.248Z,74.65
2018-08-25T06:18:25.249Z,74.04
2018-08-25T06:19:25.272Z,73.79
2018-08-25T06:20:25.251Z,73.50
2018-08-25T06:21:25.251Z,73.60
2018-08-25T06:22:25.253Z,73.54
2018-08-25T06:23:25.253Z,72.96
2018-08-25T06:24:25.259Z,72.77
2018-08-25T06:25:25.255Z,72.19
2018-08-25T06:26:25.255Z,71.17
2018-08-25T06:27:25.258Z,71.36
2018-08-25T06:28:25.257Z,71.36
2018-08-25T06:29:25.257Z,70.62
2018-08-25T06:30:25.259Z,70.72
2018-08-25T06:31:25.260Z,70.53
2018-08-25T06:32:25.261Z,69.57
2018-08-25T06:33:25.261Z,69.47
2018-08-25T06:34:25.262Z,68.93
2018-08-25T06:35:25.264Z,68.16
2018-08-25T06:36:25.287Z,67.49
2018-08-25T06:37:25.265Z,67.42
2018-08-25T06:38:25.269Z,66.65
2018-08-25T06:39:25.269Z,66.94
2018-08-25T06:40:25.270Z,66.07
2018-08-25T06:41:25.273Z,65.24
2018-08-25T06:42:25.274Z,64.95
2018-08-25T06:43:25.280Z,65.63
2018-08-25T06:44:25.277Z,64.79
2018-08-25T06:45:25.277Z,62.02
2018-08-25T06:46:25.284Z,60.93
2018-08-25T06:47:25.280Z,59.99
2018-08-25T06:48:25.282Z,58.18
2018-08-25T06:49:25.283Z,56.98
2018-08-25T06:50:25.286Z,56.04
2018-08-25T06:51:25.288Z,54.79
2018-08-25T06:52:25.291Z,54.69
2018-08-25T06:53:25.367Z,52.85
2018-08-25T06:54:25.311Z,52.82
2018-08-25T06:55:25.303Z,53.72
2018-08-25T06:56:25.306Z,53.04
2018-08-25T06:57:25.303Z,53.72
2018-08-25T06:58:25.308Z,53.91
2018-08-25T06:59:25.327Z,53.89
2018-08-25T07:00:25.311Z,53.21
2018-08-25T07:01:25.314Z,53.21
2018-08-25T07:02:25.319Z,52.68
2018-08-25T07:03:25.321Z,52.29
2018-08-25T07:04:25.325Z,51.81
2018-08-25T07:05:25.330Z,50.19
2018-08-25T07:06:25.333Z,49.80
2018-08-25T07:07:25.327Z,50.96
2018-08-25T07:08:25.336Z,51.04
2018-08-25T07:09:25.346Z,50.70
2018-08-25T07:10:25.343Z,50.86
2018-08-25T07:11:25.348Z,51.97
2018-08-25T07:12:25.352Z,53.39
2018-08-25T07:13:25.355Z,55.90
2018-08-25T07:14:25.356Z,56.39
2018-08-25T07:15:25.363Z,56.68
2018-08-25T07:16:25.364Z,57.16
2018-08-25T07:17:25.367Z,55.20
2018-08-25T07:18:25.372Z,55.20
2018-08-25T07:19:25.375Z,53.61
2018-08-25T07:20:25.376Z,51.25
2018-08-25T07:21:25.379Z,48.32
2018-08-25T07:22:25.387Z,50.45
2018-08-25T07:23:25.388Z,50.96
2018-08-25T07:24:25.392Z,51.20
2018-08-25T07:25:25.394Z,51.29
2018-08-25T07:26:25.404Z,52.36
2018-08-25T07:27:25.402Z,52.84
2018-08-25T07:28:25.404Z,51.06
2018-08-25T07:29:25.408Z,50.72
2018-08-25T07:30:25.415Z,48.22
2018-08-25T07:31:25.417Z,47.36
2018-08-25T07:32:25.422Z,46.80
2018-08-25T07:33:25.427Z,45.92
2018-08-25T07:34:25.430Z,45.92
2018-08-25T07:35:25.433Z,46.29
2018-08-25T07:36:25.436Z,46.02
2018-08-25T07:37:25.442Z,45.56
2018-08-25T07:38:25.471Z,44.81
2018-08-25T07:39:25.448Z,43.98
2018-08-25T07:40:25.454Z,42.83
2018-08-25T07:41:25.455Z,41.69
2018-08-25T07:42:25.460Z,40.72
2018-08-25T07:43:25.469Z,40.33
2018-08-25T07:44:25.517Z,40.44
2018-08-25T07:45:25.500Z,39.06
2018-08-25T07:46:25.480Z,38.44
2018-08-25T07:47:25.488Z,40.73
2018-08-25T07:48:25.495Z,43.17
2018-08-25T07:49:25.504Z,45.66
2018-08-25T07:50:25.500Z,45.66
2018-08-25T07:51:25.522Z,46.53
2018-08-25T07:52:25.509Z,47.02
2018-08-25T07:53:25.513Z,47.41
2018-08-25T07:54:25.523Z,46.90
2018-08-25T07:55:25.530Z,47.19
2018-08-25T07:56:25.530Z,47.36
2018-08-25T07:57:25.533Z,48.61
2018-08-25T07:58:25.599Z,48.23
2018-08-25T07:59:25.541Z,47.16
2018-08-25T08:00:25.554Z,46.68
2018-08-25T08:01:25.553Z,47.45
2018-08-25T08:02:25.557Z,45.40
2018-08-25T08:03:25.559Z,46.56
2018-08-25T08:04:25.574Z,47.33
2018-08-25T08:05:25.605Z,47.12
2018-08-25T08:06:25.574Z,47.31
2018-08-25T08:07:25.577Z,48.47
2018-08-25T08:08:25.578Z,47.89
2018-08-25T08:09:25.585Z,48.30
2018-08-25T08:10:25.590Z,48.30
2018-08-25T08:11:25.594Z,48.30
2018-08-25T08:12:25.596Z,47.63
2018-08-25T08:13:25.602Z,47.14
2018-08-25T08:14:25.614Z,47.05
2018-08-25T08:15:25.609Z,46.68
2018-08-25T08:16:25.612Z,45.40
2018-08-25T08:17:25.615Z,45.69
2018-08-25T08:18:25.619Z,47.24
2018-08-25T08:19:25.627Z,46.66
2018-08-25T08:20:25.627Z,45.89
2018-08-25T08:21:25.629Z,45.40
2018-08-25T08:22:25.638Z,47.05
2018-08-25T08:23:25.639Z,47.53
2018-08-25T08:24:25.644Z,47.05
2018-08-25T08:25:25.645Z,47.14
2018-08-25T08:26:25.648Z,48.61
2018-08-25T08:27:25.655Z,47.24
2018-08-25T08:28:25.657Z,47.07
2018-08-25T08:29:25.655Z,46.78
2018-08-25T08:30:25.694Z,46.03
2018-08-25T08:31:25.668Z,47.58
2018-08-25T08:32:25.671Z,45.64
2018-08-25T08:33:25.675Z,45.64
2018-08-25T08:34:25.681Z,46.12
2018-08-25T08:35:25.689Z,45.06
2018-08-25T08:36:25.686Z,45.16
2018-08-25T08:37:25.689Z,45.93
2018-08-25T08:38:25.698Z,46.20
2018-08-25T08:39:25.724Z,47.07
2018-08-25T08:40:25.702Z,47.07
2018-08-25T08:41:25.704Z,46.97
2018-08-25T08:42:25.793Z,46.97
2018-08-25T08:43:25.712Z,45.69
2018-08-25T08:44:25.718Z,46.85
2018-08-25T08:45:25.779Z,46.95
2018-08-25T08:46:25.727Z,46.66
2018-08-25T08:47:25.772Z,46.75
2018-08-25T08:48:25.734Z,46.66
2018-08-25T08:49:25.738Z,46.85
2018-08-25T08:50:25.805Z,46.85
2018-08-25T08:51:25.741Z,46.71
2018-08-25T08:52:25.744Z,47.00
2018-08-25T08:53:25.751Z,48.16
2018-08-25T08:54:25.754Z,48.06
2018-08-25T08:55:25.758Z,47.09
2018-08-25T08:56:25.775Z,48.23
2018-08-25T08:57:25.762Z,48.23
2018-08-25T08:58:25.894Z,48.71
2018-08-25T08:59:25.771Z,49.12
2018-08-25T09:00:25.772Z,49.70
2018-08-25T09:01:25.778Z,48.44
2018-08-25T09:02:25.778Z,48.16
2018-08-25T09:03:25.805Z,46.71
2018-08-25T09:04:25.789Z,48.16
2018-08-25T09:05:25.789Z,48.44
2018-08-25T09:06:25.793Z,47.17
2018-08-25T09:07:25.796Z,48.11
2018-08-25T09:08:25.799Z,48.59
2018-08-25T09:09:25.802Z,49.68
2018-08-25T09:10:25.806Z,50.16
2018-08-25T09:11:25.864Z,50.86
2018-08-25T09:12:25.813Z,49.22
2018-08-25T09:13:25.817Z,49.19
2018-08-25T09:14:25.819Z,49.99
2018-08-25T09:15:25.822Z,49.12
2018-08-25T09:16:25.826Z,49.32
2018-08-25T09:17:25.827Z,48.83
2018-08-25T09:18:25.830Z,48.25
2018-08-25T09:19:25.891Z,49.99
2018-08-25T09:20:25.837Z,50.96
2018-08-25T09:21:25.843Z,50.40
2018-08-25T09:22:25.844Z,49.95
2018-08-25T09:23:25.849Z,48.66
2018-08-25T09:24:25.844Z,48.25
2018-08-25T09:25:25.848Z,48.93
2018-08-25T09:26:25.859Z,50.38
2018-08-25T09:27:25.954Z,50.38
2018-08-25T09:28:25.863Z,49.70
2018-08-25T09:29:25.867Z,49.60
2018-08-25T09:30:25.872Z,50.86
2018-08-25T09:31:25.874Z,50.89
2018-08-25T09:32:25.874Z,50.31
2018-08-25T09:33:25.876Z,48.74
2018-08-25T09:34:25.883Z,48.54
2018-08-25T09:35:25.882Z,46.69
2018-08-25T09:36:26.037Z,47.05
2018-08-25T09:37:25.898Z,48.01
2018-08-25T09:38:25.894Z,48.97
2018-08-25T09:39:25.895Z,50.16
2018-08-25T09:40:25.897Z,51.32
2018-08-25T09:41:25.897Z,50.38
2018-08-25T09:42:25.905Z,48.16
2018-08-25T09:43:25.911Z,48.16
2018-08-25T09:44:25.909Z,47.38
2018-08-25T09:45:25.916Z,48.83
2018-08-25T09:46:25.918Z,48.13
2018-08-25T09:47:25.920Z,48.42
2018-08-25T09:48:25.924Z,48.93
2018-08-25T09:49:25.926Z,49.32
2018-08-25T09:50:25.929Z,49.12
2018-08-25T09:51:25.933Z,48.25
2018-08-25T09:52:25.989Z,46.78
2018-08-25T09:53:25.944Z,47.00
2018-08-25T09:54:25.946Z,46.59
2018-08-25T09:55:25.946Z,47.45
2018-08-25T09:56:25.946Z,46.97
2018-08-25T09:57:25.950Z,47.17
2018-08-25T09:58:25.954Z,47.85
2018-08-25T09:59:25.957Z,47.85
2018-08-25T10:00:25.959Z,49.00
2018-08-25T10:01:25.963Z,48.71
2018-08-25T10:02:25.963Z,48.42
2018-08-25T10:03:25.970Z,48.21
2018-08-25T10:04:25.970Z,48.21
2018-08-25T10:05:25.971Z,48.40
2018-08-25T10:06:25.972Z,48.88
2018-08-25T10:07:25.977Z,48.40
2018-08-25T10:08:25.983Z,49.55
2018-08-25T10:09:25.983Z,49.17
2018-08-25T10:10:25.987Z,49.55
2018-08-25T10:11:25.988Z,49.65
2018-08-25T10:12:25.994Z,48.97
2018-08-25T10:13:25.994Z,48.52
2018-08-25T10:14:25.997Z,48.71
2018-08-25T10:15:26.000Z,48.71
2018-08-25T10:16:26.031Z,48.40
2018-08-25T10:17:26.005Z,48.79
2018-08-25T10:18:26.009Z,48.97
2018-08-25T10:19:26.011Z,49.19
2018-08-25T10:20:26.016Z,49.65
2018-08-25T10:21:26.015Z,50.52
2018-08-25T10:22:26.021Z,49.77
2018-08-25T10:23:26.073Z,49.96
2018-08-25T10:24:26.025Z,48.97
2018-08-25T10:25:26.028Z,49.77
2018-08-25T10:26:26.029Z,49.00
2018-08-25T10:27:26.029Z,49.96
2018-08-25T10:28:26.033Z,50.16
2018-08-25T10:29:26.036Z,50.74
2018-08-25T10:30:26.044Z,49.96
2018-08-25T10:31:26.043Z,49.68
2018-08-25T10:32:26.047Z,49.87
2018-08-25T10:33:26.046Z,49.77
2018-08-25T10:34:26.050Z,49.10
2018-08-25T10:35:26.053Z,49.22
2018-08-25T10:36:26.055Z,49.90
2018-08-25T10:37:26.060Z,48.93
2018-08-25T10:38:26.062Z,48.93
2018-08-25T10:39:26.064Z,48.25
2018-08-25T10:40:26.068Z,47.67
2018-08-25T10:41:26.074Z,48.28
2018-08-25T10:42:26.076Z,47.22
2018-08-25T10:43:26.078Z,46.64
2018-08-25T10:44:26.081Z,47.12
2018-08-25T10:45:26.084Z,46.90
2018-08-25T10:46:26.087Z,46.44
2018-08-25T10:47:26.092Z,46.15
2018-08-25T10:48:26.092Z,46.92
2018-08-25T10:49:26.097Z,47.00
2018-08-25T10:50:26.097Z,46.71
2018-08-25T10:51:26.099Z,47.22
2018-08-25T10:52:26.102Z,47.38
2018-08-25T10:53:26.106Z,47.89
2018-08-25T10:54:26.110Z,46.54
2018-08-25T10:55:26.113Z,46.83
2018-08-25T10:56:26.119Z,45.53
2018-08-25T10:57:26.124Z,46.69
2018-08-25T10:58:26.121Z,46.49
2018-08-25T10:59:26.122Z,46.40
2018-08-25T11:00:26.262Z,47.17
2018-08-25T11:01:26.129Z,48.03
2018-08-25T11:02:26.132Z,47.65
2018-08-25T11:03:26.138Z,48.33
2018-08-25T11:04:26.140Z,48.13
2018-08-25T11:05:26.140Z,48.21
2018-08-25T11:06:26.144Z,47.34
2018-08-25T11:07:26.145Z,48.21
2018-08-25T11:08:26.150Z,47.14
2018-08-25T11:09:26.155Z,48.11
2018-08-25T11:10:26.154Z,47.82
2018-08-25T11:11:26.158Z,48.49
2018-08-25T11:12:26.160Z,48.21
2018-08-25T11:13:26.163Z,48.59
2018-08-25T11:14:26.166Z,48.69
2018-08-25T11:15:26.169Z,48.40
2018-08-25T11:16:26.227Z,48.21
2018-08-25T11:17:26.172Z,48.30
2018-08-25T11:18:26.177Z,48.21
2018-08-25T11:19:26.181Z,48.40
2018-08-25T11:20:26.181Z,48.49
2018-08-25T11:21:26.184Z,48.59
2018-08-25T11:22:26.186Z,49.24
2018-08-25T11:23:26.196Z,48.95
2018-08-25T11:24:26.191Z,48.76
2018-08-25T11:25:26.193Z,48.86
2018-08-25T11:26:26.199Z,48.28
2018-08-25T11:27:26.199Z,49.15
2018-08-25T11:28:26.200Z,48.86
2018-08-25T11:29:26.304Z,48.86
2018-08-25T11:30:26.207Z,48.38
2018-08-25T11:31:26.209Z,47.03
2018-08-25T11:32:26.211Z,46.93
2018-08-25T11:33:26.212Z,47.22
2018-08-25T11:34:26.218Z,46.56
2018-08-25T11:35:26.217Z,46.66
2018-08-25T11:36:26.221Z,46.37
2018-08-25T11:37:26.312Z,46.40
2018-08-25T11:38:26.226Z,46.59
2018-08-25T11:39:26.229Z,45.55
2018-08-25T11:40:26.230Z,46.23
2018-08-25T11:41:26.232Z,45.84
2018-08-25T11:42:26.237Z,45.48
2018-08-25T11:43:26.243Z,44.82
2018-08-25T11:44:26.242Z,43.68
2018-08-25T11:45:26.250Z,43.28
2018-08-25T11:46:26.246Z,43.30
2018-08-25T11:47:26.251Z,42.82
2018-08-25T11:48:26.257Z,42.83
2018-08-25T11:49:26.254Z,42.83
2018-08-25T11:50:26.259Z,41.58
2018-08-25T11:51:26.263Z,42.65
2018-08-25T11:52:26.269Z,43.80
2018-08-25T11:53:26.268Z,40.69
2018-08-25T11:54:26.270Z,40.88
2018-08-25T11:55:26.275Z,41.36
2018-08-25T11:56:26.278Z,41.75
2018-08-25T11:57:26.280Z,42.43
2018-08-25T11:58:26.283Z,41.75
2018-08-25T11:59:26.286Z,41.08
2018-08-25T12:00:26.294Z,39.82
2018-08-25T12:01:26.293Z,40.11
2018-08-25T12:02:27.801Z,39.62
2018-08-25T12:03:26.372Z,40.30
2018-08-25T12:04:26.305Z,40.40
2018-08-25T12:05:26.307Z,39.92
2018-08-25T12:06:26.310Z,40.01
2018-08-25T12:07:26.313Z,39.82
2018-08-25T12:08:26.318Z,38.85
2018-08-25T12:09:26.334Z,39.04
2018-08-25T12:10:26.326Z,38.46
2018-08-25T12:11:26.328Z,38.66
2018-08-25T12:12:26.332Z,38.64
2018-08-25T12:13:26.335Z,39.72
2018-08-25T12:14:26.338Z,39.92
2018-08-25T12:15:26.343Z,39.03
2018-08-25T12:16:26.434Z,39.12
2018-08-25T12:17:26.348Z,39.99
2018-08-25T12:18:26.424Z,38.83
2018-08-25T12:19:26.357Z,39.80
2018-08-25T12:20:26.360Z,39.90
2018-08-25T12:21:26.363Z,40.17
2018-08-25T12:22:26.365Z,40.94
2018-08-25T12:23:26.371Z,41.52
2018-08-25T12:24:26.370Z,41.61
2018-08-25T12:25:26.375Z,41.81
2018-08-25T12:26:26.379Z,41.71
2018-08-25T12:27:26.384Z,40.05
2018-08-25T12:28:26.388Z,40.53
2018-08-25T12:29:26.391Z,40.92
2018-08-25T12:30:26.448Z,41.30
2018-08-25T12:31:26.395Z,40.82
2018-08-25T12:32:26.404Z,40.51
2018-08-25T12:33:26.409Z,41.67
2018-08-25T12:34:26.404Z,41.77
2018-08-25T12:35:26.408Z,42.56
2018-08-25T12:36:26.412Z,42.94
2018-08-25T12:37:26.414Z,41.86
2018-08-25T12:38:26.419Z,41.02
2018-08-25T12:39:26.471Z,40.90
2018-08-25T12:40:26.423Z,41.57
2018-08-25T12:41:26.431Z,41.60
2018-08-25T12:42:26.428Z,41.60
2018-08-25T12:43:26.457Z,41.60
2018-08-25T12:44:26.449Z,41.98
2018-08-25T12:45:26.442Z,42.44
2018-08-25T12:46:26.441Z,42.66
2018-08-25T12:47:26.447Z,42.25
2018-08-25T12:48:26.448Z,42.27
2018-08-25T12:49:26.458Z,42.36
2018-08-25T12:50:26.453Z,42.46
2018-08-25T12:51:26.456Z,43.41
2018-08-25T12:52:26.459Z,43.98